createdAt,value
2018-04-10T00:02:06.169Z,8.70
2018-04-10T00:04:32.435Z,8.60
2018-04-10T00:06:59.391Z,8.40
2018-04-10T00:09:25.615Z,8.40
2018-04-10T00:11:51.746Z,8.40
2018-04-10T00:14:18.000Z,8.40
2018-04-10T00:16:44.968Z,8.60
2018-04-10T00:19:11.872Z,8.40
2018-04-10T00:21:38.032Z,8.50
2018-04-10T00:24:04.246Z,8.40
2018-04-10T00:26:30.516Z,8.30
2018-04-10T00:28:56.847Z,8.20
2018-04-10T00:31:23.263Z,8.10
2018-04-10T00:33:49.514Z,8.00
2018-04-10T00:36:15.935Z,7.90
2018-04-10T00:38:42.208Z,7.80
2018-04-10T00:41:08.736Z,7.90
2018-04-10T00:43:35.039Z,7.90
2018-04-10T00:46:01.589Z,7.90
2018-04-10T00:48:27.838Z,7.90
2018-04-10T00:50:54.133Z,7.90
2018-04-10T00:53:32.589Z,7.80
2018-04-10T00:55:59.660Z,7.60
2018-04-10T00:58:25.914Z,7.60
2018-04-10T01:00:52.927Z,7.40
2018-04-10T01:03:19.227Z,7.40
2018-04-10T01:05:45.545Z,7.40
2018-04-10T01:08:11.920Z,7.30
2018-04-10T01:10:38.174Z,7.30
2018-04-10T01:13:04.493Z,7.20
2018-04-10T01:15:31.541Z,7.20
2018-04-10T01:17:58.410Z,7.20
2018-04-10T01:20:25.431Z,7.10
2018-04-10T01:22:51.680Z,7.10
2018-04-10T01:25:17.965Z,7.10
2018-04-10T01:27:44.338Z,7.20
2018-04-10T01:30:10.614Z,7.20
2018-04-10T01:32:36.953Z,7.30
2018-04-10T01:35:03.671Z,7.40
2018-04-10T01:37:30.005Z,7.50
2018-04-10T01:39:56.295Z,7.50
2018-04-10T01:42:22.589Z,7.40
2018-04-10T01:44:48.912Z,7.40
2018-04-10T01:47:15.156Z,7.30
2018-04-10T01:49:41.515Z,7.20
2018-04-10T01:52:07.823Z,7.20
2018-04-10T01:54:34.079Z,7.30
2018-04-10T01:57:01.189Z,7.30
2018-04-10T01:59:27.529Z,7.30
2018-04-10T02:01:53.800Z,7.20
2018-04-10T02:04:20.047Z,7.20
2018-04-10T02:06:46.353Z,7.00
2018-04-10T02:09:12.659Z,7.00
2018-04-10T02:14:48.663Z,7.10
2018-04-10T02:17:33.300Z,7.10
2018-04-10T02:19:59.613Z,7.20
2018-04-10T02:22:25.762Z,7.30
2018-04-10T02:24:51.903Z,7.30
2018-04-10T02:27:19.321Z,7.20
2018-04-10T02:29:46.181Z,6.90
2018-04-10T02:32:12.308Z,6.90
2018-04-10T02:34:39.222Z,6.80
2018-04-10T02:37:05.378Z,6.80
2018-04-10T02:39:32.474Z,6.80
2018-04-10T02:41:59.375Z,6.60
2018-04-10T02:44:25.487Z,6.60
2018-04-10T02:46:51.595Z,6.60
2018-04-10T02:49:18.419Z,6.50
2018-04-10T02:51:44.568Z,6.50
2018-04-10T02:54:11.440Z,6.50
2018-04-10T02:56:38.362Z,6.50
2018-04-10T02:59:04.475Z,6.50
2018-04-10T03:01:30.911Z,6.50
2018-04-10T03:03:57.095Z,6.50
2018-04-10T03:06:24.025Z,6.40
2018-04-10T03:08:50.167Z,6.40
2018-04-10T03:11:16.287Z,6.40
2018-04-10T03:13:42.481Z,6.40
2018-04-10T03:16:08.625Z,6.30
2018-04-10T03:18:34.760Z,6.20
2018-04-10T03:21:00.896Z,6.20
2018-04-10T03:23:29.075Z,6.30
2018-04-10T03:25:55.228Z,6.30
2018-04-10T03:28:21.436Z,6.20
2018-04-10T03:30:47.557Z,6.20
2018-04-10T03:33:37.824Z,6.20
2018-04-10T03:36:03.953Z,6.20
2018-04-10T03:38:30.054Z,6.20
2018-04-10T03:40:56.199Z,6.30
2018-04-10T03:43:23.147Z,6.40
2018-04-10T03:45:49.296Z,6.40
2018-04-10T03:48:15.403Z,6.60
2018-04-10T03:50:41.551Z,6.60
2018-04-10T03:53:07.752Z,6.70
2018-04-10T03:55:34.683Z,6.60
2018-04-10T03:58:01.541Z,6.60
2018-04-10T04:00:27.676Z,6.50
2018-04-10T04:02:53.926Z,6.40
2018-04-10T04:05:20.186Z,6.20
2018-04-10T04:07:47.103Z,6.00
2018-04-10T04:10:13.359Z,5.90
2018-04-10T04:12:40.545Z,5.80
2018-04-10T04:15:07.663Z,5.70
2018-04-10T04:17:34.147Z,5.70
2018-04-10T04:23:03.142Z,5.70
2018-04-10T04:25:29.327Z,5.70
2018-04-10T04:27:55.563Z,5.60
2018-04-10T04:30:21.757Z,5.50
2018-04-10T04:32:47.951Z,5.50
2018-04-10T04:35:14.149Z,5.50
2018-04-10T04:37:40.351Z,5.50
2018-04-10T04:40:09.461Z,5.50
2018-04-10T04:42:36.413Z,5.50
2018-04-10T04:45:03.358Z,5.50
2018-04-10T04:47:29.580Z,5.40
2018-04-10T04:49:55.763Z,5.50
2018-04-10T04:52:22.662Z,5.50
2018-04-10T04:54:48.865Z,5.40
2018-04-10T04:57:15.771Z,5.60
2018-04-10T04:59:41.951Z,5.60
2018-04-10T05:02:08.894Z,5.60
2018-04-10T05:04:35.043Z,5.60
2018-04-10T05:07:02.007Z,5.60
2018-04-10T05:09:28.881Z,5.70
2018-04-10T05:11:55.914Z,5.70
2018-04-10T05:14:22.833Z,6.00
2018-04-10T05:16:49.026Z,6.00
2018-04-10T05:19:15.906Z,6.10
2018-04-10T05:21:42.141Z,6.10
2018-04-10T05:24:08.313Z,6.00
2018-04-10T05:26:34.598Z,6.00
2018-04-10T05:29:00.805Z,6.10
2018-04-10T05:31:27.991Z,6.10
2018-04-10T05:33:54.177Z,6.30
2018-04-10T05:36:20.352Z,6.40
2018-04-10T05:38:46.579Z,6.40
2018-04-10T05:41:12.829Z,6.50
2018-04-10T05:43:38.994Z,6.60
2018-04-10T05:46:05.349Z,6.70
2018-04-10T05:48:32.278Z,7.00
2018-04-10T05:51:02.006Z,7.00
2018-04-10T05:53:28.196Z,7.10
2018-04-10T05:55:54.357Z,7.20
2018-04-10T05:58:21.270Z,7.50
2018-04-10T06:00:48.165Z,7.80
2018-04-10T06:03:14.362Z,7.70
2018-04-10T06:05:41.277Z,8.10
2018-04-10T06:08:07.485Z,8.10
2018-04-10T06:10:33.658Z,8.20
2018-04-10T06:12:59.836Z,9.00
2018-04-10T06:15:26.780Z,11.30
2018-04-10T06:17:53.735Z,12.10
2018-04-10T06:20:19.930Z,12.10
2018-04-10T06:22:46.137Z,13.10
2018-04-10T06:25:13.135Z,15.40
2018-04-10T06:27:39.339Z,15.30
2018-04-10T06:30:06.297Z,15.70
2018-04-10T06:32:33.179Z,16.10
2018-04-10T06:34:59.318Z,16.10
2018-04-10T06:37:25.560Z,16.70
2018-04-10T06:39:52.430Z,16.40
2018-04-10T06:42:18.646Z,16.40
2018-04-10T06:44:45.334Z,16.60
2018-04-10T06:47:11.461Z,17.00
2018-04-10T06:49:38.408Z,17.60
2018-04-10T06:52:04.624Z,17.50
2018-04-10T06:54:30.849Z,17.70
2018-04-10T06:56:57.771Z,18.10
2018-04-10T06:59:23.968Z,18.10
2018-04-10T07:01:50.184Z,18.30
2018-04-10T07:04:17.092Z,19.20
2018-04-10T07:06:43.272Z,19.20
2018-04-10T07:09:09.450Z,19.00
2018-04-10T07:11:35.736Z,18.70
2018-04-10T07:14:01.966Z,18.90
2018-04-10T07:16:28.196Z,18.80
2018-04-10T07:18:54.382Z,18.90
2018-04-10T07:21:21.282Z,19.50
2018-04-10T07:23:47.486Z,19.40
2018-04-10T07:26:14.451Z,19.50
2018-04-10T07:28:41.379Z,19.40
2018-04-10T07:31:07.622Z,19.40
2018-04-10T07:33:33.847Z,19.80
2018-04-10T07:36:00.045Z,20.20
2018-04-10T07:38:27.119Z,20.10
2018-04-10T07:40:53.292Z,20.20
2018-04-10T07:43:19.540Z,20.50
2018-04-10T07:45:46.583Z,20.00
2018-04-10T07:48:12.893Z,19.90
2018-04-10T07:50:39.133Z,20.10
2018-04-10T07:53:05.473Z,20.00
2018-04-10T07:55:31.780Z,19.70
2018-04-10T07:57:58.875Z,19.60
2018-04-10T08:00:25.222Z,19.60
2018-04-10T08:02:51.481Z,19.40
2018-04-10T08:05:17.750Z,19.40
2018-04-10T08:07:44.016Z,19.50
2018-04-10T08:10:11.005Z,19.60
2018-04-10T08:12:37.410Z,19.60
2018-04-10T08:15:03.680Z,19.90
2018-04-10T08:17:29.991Z,20.00
2018-04-10T08:19:56.652Z,20.10
2018-04-10T08:22:23.676Z,20.10
2018-04-10T08:24:49.973Z,20.10
2018-04-10T08:27:16.248Z,20.30
2018-04-10T08:29:42.592Z,20.40
2018-04-10T08:32:08.905Z,20.40
2018-04-10T08:34:35.285Z,20.60
2018-04-10T08:37:01.694Z,20.90
2018-04-10T08:39:28.000Z,21.00
2018-04-10T08:41:54.268Z,21.10
2018-04-10T08:44:21.349Z,21.30
2018-04-10T08:46:47.641Z,21.30
2018-04-10T08:49:13.948Z,21.20
2018-04-10T08:51:40.236Z,21.20
2018-04-10T08:54:06.555Z,21.40
2018-04-10T08:56:32.847Z,21.50
2018-04-10T08:58:59.063Z,21.70
2018-04-10T09:01:26.181Z,22.20
2018-04-10T09:03:53.136Z,22.30
2018-04-10T09:06:20.404Z,22.30
2018-04-10T09:08:47.567Z,22.30
2018-04-10T09:11:13.865Z,22.20
2018-04-10T09:13:40.155Z,22.20
2018-04-10T09:16:06.472Z,22.10
2018-04-10T09:18:32.907Z,22.20
2018-04-10T09:20:59.107Z,22.20
2018-04-10T09:23:25.398Z,22.20
2018-04-10T09:25:51.717Z,22.20
2018-04-10T09:28:18.749Z,22.10
2018-04-10T09:30:44.960Z,22.10
2018-04-10T09:33:11.309Z,22.10
2018-04-10T09:35:37.616Z,22.10
2018-04-10T09:38:03.865Z,22.20
2018-04-10T09:40:30.906Z,22.50
2018-04-10T09:42:57.928Z,22.60
2018-04-10T09:45:24.270Z,22.60
2018-04-10T09:47:50.529Z,22.70
2018-04-10T09:50:16.880Z,22.90
2018-04-10T09:52:43.952Z,23.00
2018-04-10T09:55:11.038Z,23.00
2018-04-10T09:57:37.406Z,23.00
2018-04-10T10:00:03.723Z,23.00
2018-04-10T10:02:30.026Z,23.00
2018-04-10T10:04:56.322Z,23.10
2018-04-10T10:07:22.624Z,23.10
2018-04-10T10:09:49.683Z,23.20
2018-04-10T10:12:16.812Z,23.20
2018-04-10T10:14:43.133Z,23.20
2018-04-10T10:17:09.453Z,23.30
2018-04-10T10:19:35.741Z,23.30
2018-04-10T10:22:02.048Z,23.50
2018-04-10T10:24:35.499Z,23.50
2018-04-10T10:27:01.772Z,23.70
2018-04-10T10:29:28.758Z,23.60
2018-04-10T10:31:54.980Z,23.60
2018-04-10T10:34:21.235Z,23.60
2018-04-10T10:36:47.556Z,23.60
2018-04-10T10:39:14.608Z,23.70
2018-04-10T10:41:41.125Z,23.60
2018-04-10T10:44:07.378Z,23.70
2018-04-10T10:46:33.634Z,23.70
2018-04-10T10:49:00.663Z,23.90
2018-04-10T10:51:30.552Z,23.90
2018-04-10T10:53:56.872Z,24.00
2018-04-10T10:56:23.842Z,24.00
2018-04-10T10:58:51.813Z,24.10
2018-04-10T11:01:18.910Z,24.20
2018-04-10T11:03:45.191Z,24.10
2018-04-10T11:06:11.520Z,24.20
2018-04-10T11:08:37.787Z,24.00
2018-04-10T11:11:04.142Z,24.00
2018-04-10T11:13:31.164Z,24.50
2018-04-10T11:15:57.483Z,24.50
2018-04-10T11:18:23.748Z,24.60
2018-04-10T11:20:50.085Z,24.60
2018-04-10T11:23:16.390Z,24.50
2018-04-10T11:25:43.436Z,24.50
2018-04-10T11:28:10.607Z,24.50
2018-04-10T11:30:37.625Z,24.40
2018-04-10T11:33:03.965Z,24.40
2018-04-10T11:35:30.248Z,24.20
2018-04-10T11:37:57.301Z,24.40
2018-04-10T11:40:24.374Z,24.60
2018-04-10T11:42:51.327Z,24.90
2018-04-10T11:45:18.405Z,25.00
2018-04-10T11:47:44.652Z,25.00
2018-04-10T11:50:11.029Z,24.80
2018-04-10T11:52:37.325Z,24.90
2018-04-10T11:55:04.435Z,25.20
2018-04-10T11:57:30.672Z,25.20
2018-04-10T11:59:57.778Z,24.80
2018-04-10T12:02:24.812Z,24.50
2018-04-10T12:04:51.094Z,24.40
2018-04-10T12:07:18.131Z,24.10
2018-04-10T12:09:45.156Z,23.90
2018-04-10T12:12:17.960Z,23.90
2018-04-10T12:14:44.206Z,23.80
2018-04-10T12:17:21.824Z,23.80
2018-04-10T12:19:48.102Z,23.90
2018-04-10T12:22:14.418Z,23.90
2018-04-10T12:24:40.723Z,24.10
2018-04-10T12:27:07.026Z,24.40
2018-04-10T12:29:33.426Z,24.60
2018-04-10T12:31:59.728Z,24.90
2018-04-10T12:34:26.753Z,24.50
2018-04-10T12:36:53.766Z,24.50
2018-04-10T12:39:20.057Z,24.50
2018-04-10T12:41:50.203Z,25.10
2018-04-10T12:44:17.186Z,25.50
2018-04-10T12:46:43.509Z,25.50
2018-04-10T12:49:10.498Z,25.90
2018-04-10T12:51:36.812Z,25.90
2018-04-10T12:54:03.862Z,26.10
2018-04-10T12:56:30.889Z,26.20
2018-04-10T12:58:57.181Z,26.20
2018-04-10T13:01:26.037Z,26.20
2018-04-10T13:03:52.340Z,26.00
2018-04-10T13:06:24.941Z,26.00
2018-04-10T13:08:53.242Z,25.90
2018-04-10T13:11:19.646Z,25.70
2018-04-10T13:13:45.981Z,25.70
2018-04-10T13:16:12.166Z,25.60
2018-04-10T13:18:38.461Z,25.50
2018-04-10T13:21:05.543Z,25.20
2018-04-10T13:23:31.932Z,25.20
2018-04-10T13:25:58.242Z,25.20
2018-04-10T13:28:24.740Z,25.10
2018-04-10T13:30:51.779Z,25.10
2018-04-10T13:33:18.100Z,25.10
2018-04-10T13:35:45.868Z,25.20
2018-04-10T13:38:12.153Z,25.20
2018-04-10T13:40:38.466Z,25.20
2018-04-10T13:43:05.582Z,25.40
2018-04-10T13:45:32.548Z,25.30
2018-04-10T13:47:58.871Z,25.30
2018-04-10T13:50:25.879Z,25.10
2018-04-10T13:52:52.148Z,25.10
2018-04-10T13:55:18.774Z,25.20
2018-04-10T13:57:46.287Z,25.20
2018-04-10T14:00:12.923Z,25.10
2018-04-10T14:02:40.776Z,25.00
2018-04-10T14:05:07.061Z,25.00
2018-04-10T14:07:33.487Z,25.00
2018-04-10T14:10:00.612Z,24.90
2018-04-10T14:12:27.255Z,24.90
2018-04-10T14:14:54.285Z,24.90
2018-04-10T14:17:21.654Z,25.10
2018-04-10T14:19:48.740Z,25.10
2018-04-10T14:22:15.043Z,25.10
2018-04-10T14:24:42.090Z,25.10
2018-04-10T14:27:08.421Z,25.10
2018-04-10T14:29:35.068Z,25.10
2018-04-10T14:32:01.440Z,25.10
2018-04-10T14:34:27.768Z,25.10
2018-04-10T14:36:54.049Z,25.20
2018-04-10T14:39:21.085Z,25.40
2018-04-10T14:41:47.615Z,25.30
2018-04-10T14:44:13.991Z,25.10
2018-04-10T14:46:41.006Z,24.90
2018-04-10T14:49:07.272Z,24.90
2018-04-10T14:51:33.637Z,24.70
2018-04-10T14:53:59.936Z,24.60
2018-04-10T14:56:26.279Z,24.30
2018-04-10T14:58:52.945Z,23.90
2018-04-10T15:01:19.213Z,23.60
2018-04-10T15:03:46.229Z,23.30
2018-04-10T15:06:12.537Z,23.30
2018-04-10T15:08:38.812Z,23.40
2018-04-10T15:11:05.075Z,23.50
2018-04-10T15:13:31.403Z,23.70
2018-04-10T15:15:57.734Z,23.70
2018-04-10T15:18:23.991Z,23.70
2018-04-10T15:20:50.309Z,23.80
2018-04-10T15:23:16.552Z,23.90
2018-04-10T15:25:42.878Z,24.00
2018-04-10T15:28:09.138Z,24.20
2018-04-10T15:30:35.428Z,24.10
2018-04-10T15:33:01.691Z,24.10
2018-04-10T15:35:29.591Z,24.10
2018-04-10T15:37:55.860Z,24.10
2018-04-10T15:40:22.106Z,24.00
2018-04-10T15:42:48.390Z,23.80
2018-04-10T15:45:15.442Z,23.70
2018-04-10T15:47:42.592Z,23.70
2018-04-10T15:50:08.911Z,23.70
2018-04-10T15:52:35.193Z,23.70
2018-04-10T15:55:02.239Z,23.60
2018-04-10T15:57:29.244Z,23.40
2018-04-10T15:59:55.473Z,23.40
2018-04-10T16:02:21.772Z,23.20
2018-04-10T16:04:48.384Z,23.10
2018-04-10T16:07:14.620Z,23.10
2018-04-10T16:09:41.526Z,23.20
2018-04-10T16:12:07.802Z,23.60
2018-04-10T16:14:34.164Z,23.70
2018-04-10T16:17:00.576Z,23.70
2018-04-10T16:19:27.593Z,23.40
2018-04-10T16:21:53.879Z,23.40
2018-04-10T16:24:22.928Z,22.80
2018-04-10T16:26:49.574Z,22.70
2018-04-10T16:29:15.862Z,22.40
2018-04-10T16:31:42.283Z,22.10
2018-04-10T16:34:08.597Z,21.80
2018-04-10T16:36:34.994Z,21.60
2018-04-10T16:39:01.244Z,21.40
2018-04-10T16:41:28.224Z,21.20
2018-04-10T16:43:55.251Z,21.10
2018-04-10T16:46:21.522Z,21.00
2018-04-10T16:48:48.522Z,21.00
2018-04-10T16:51:14.826Z,20.90
2018-04-10T16:53:41.099Z,20.90
2018-04-10T16:56:07.440Z,20.80
2018-04-10T16:58:33.848Z,20.60
2018-04-10T17:01:00.185Z,20.60
2018-04-10T17:03:27.252Z,20.30
2018-04-10T17:05:53.562Z,20.30
2018-04-10T17:08:19.912Z,20.20
2018-04-10T17:10:46.183Z,20.10
2018-04-10T17:13:13.243Z,19.90
2018-04-10T17:15:40.208Z,19.80
2018-04-10T17:18:06.473Z,19.80
2018-04-10T17:20:32.786Z,19.70
2018-04-10T17:22:59.833Z,19.40
2018-04-10T17:25:26.911Z,19.30
2018-04-10T17:27:53.937Z,19.20
2018-04-10T17:30:21.187Z,19.20
2018-04-10T17:32:47.474Z,19.10
2018-04-10T17:35:14.518Z,18.90
2018-04-10T17:37:40.762Z,18.80
2018-04-10T17:40:07.008Z,18.80
2018-04-10T17:42:34.094Z,18.70
2018-04-10T17:45:01.292Z,18.50
2018-04-10T17:47:27.561Z,18.50
2018-04-10T17:49:53.758Z,18.40
2018-04-10T17:52:20.052Z,18.40
2018-04-10T17:54:47.033Z,18.40
2018-04-10T17:57:13.308Z,18.40
2018-04-10T17:59:39.594Z,18.30
2018-04-10T18:02:06.684Z,18.10
2018-04-10T18:04:33.008Z,18.10
2018-04-10T18:07:00.055Z,18.00
2018-04-10T18:09:27.089Z,18.00
2018-04-10T18:11:53.559Z,18.00
2018-04-10T18:14:20.548Z,17.90
2018-04-10T18:16:46.860Z,17.90
2018-04-10T18:19:13.130Z,18.00
2018-04-10T18:21:39.487Z,17.90
2018-04-10T18:24:05.803Z,17.90
2018-04-10T18:26:32.929Z,17.70
2018-04-10T18:28:59.907Z,17.50
2018-04-10T18:31:26.265Z,17.50
2018-04-10T18:33:53.303Z,17.30
2018-04-10T18:36:19.589Z,17.20
2018-04-10T18:38:45.856Z,17.10
2018-04-10T18:41:12.080Z,17.10
2018-04-10T18:43:38.391Z,17.00
2018-04-10T18:46:05.458Z,16.90
2018-04-10T18:48:31.779Z,16.90
2018-04-10T18:50:58.855Z,16.70
2018-04-10T18:53:25.876Z,16.60
2018-04-10T18:55:52.175Z,16.60
2018-04-10T18:58:18.464Z,16.40
2018-04-10T19:00:44.783Z,16.40
2018-04-10T19:03:11.071Z,16.40
2018-04-10T19:05:41.187Z,16.30
2018-04-10T19:08:07.520Z,16.20
2018-04-10T19:10:33.849Z,16.10
2018-04-10T19:13:00.177Z,16.10
2018-04-10T19:15:26.476Z,16.00
2018-04-10T19:17:52.727Z,16.00
2018-04-10T19:20:19.751Z,15.90
2018-04-10T19:22:46.059Z,15.90
2018-04-10T19:25:12.381Z,16.20
2018-04-10T19:27:39.466Z,16.10
2018-04-10T19:30:05.756Z,16.00
2018-04-10T19:32:32.047Z,16.10
2018-04-10T19:34:58.292Z,16.00
2018-04-10T19:37:24.545Z,15.90
2018-04-10T19:39:50.843Z,15.80
2018-04-10T19:42:17.133Z,15.70
2018-04-10T19:44:43.371Z,15.60
2018-04-10T19:47:09.642Z,15.50
2018-04-10T19:49:35.924Z,15.40
2018-04-10T19:52:02.360Z,15.30
2018-04-10T19:54:28.703Z,15.20
2018-04-10T19:56:54.999Z,15.20
2018-04-10T19:59:21.544Z,15.10
2018-04-10T20:01:47.828Z,15.10
2018-04-10T20:04:14.902Z,15.00
2018-04-10T20:06:41.981Z,15.00
2018-04-10T20:09:08.314Z,15.00
2018-04-10T20:11:34.583Z,15.00
2018-04-10T20:14:01.179Z,15.00
2018-04-10T20:16:27.643Z,15.00
2018-04-10T20:18:53.968Z,14.90
2018-04-10T20:21:21.122Z,15.00
2018-04-10T20:23:48.177Z,15.00
2018-04-10T20:26:14.497Z,15.00
2018-04-10T20:28:40.754Z,15.00
2018-04-10T20:31:07.089Z,14.90
2018-04-10T20:33:33.436Z,14.80
2018-04-10T20:35:59.735Z,14.70
2018-04-10T20:38:26.051Z,14.80
2018-04-10T20:40:52.325Z,14.80
2018-04-10T20:43:24.443Z,14.80
2018-04-10T20:45:51.496Z,14.70
2018-04-10T20:48:18.122Z,14.80
2018-04-10T20:50:44.415Z,14.70
2018-04-10T20:53:10.778Z,14.70
2018-04-10T20:55:37.812Z,14.50
2018-04-10T20:58:04.110Z,14.50
2018-04-10T21:00:30.380Z,14.50
2018-04-10T21:02:56.697Z,14.40
2018-04-10T21:05:22.987Z,14.50
2018-04-10T21:07:53.066Z,14.40
2018-04-10T21:10:19.353Z,14.30
2018-04-10T21:12:46.393Z,14.20
2018-04-10T21:15:12.611Z,14.10
2018-04-10T21:17:38.875Z,14.10
2018-04-10T21:20:05.181Z,14.00
2018-04-10T21:22:31.481Z,14.00
2018-04-10T21:24:57.744Z,14.00
2018-04-10T21:27:24.853Z,14.00
2018-04-10T21:29:51.089Z,14.00
2018-04-10T21:32:17.384Z,14.00
2018-04-10T21:34:43.664Z,13.90
2018-04-10T21:37:09.925Z,13.80
2018-04-10T21:39:36.230Z,13.80
2018-04-10T21:42:03.249Z,13.60
2018-04-10T21:44:29.534Z,13.60
2018-04-10T21:46:56.583Z,13.50
2018-04-10T21:49:23.624Z,13.40
2018-04-10T21:51:49.943Z,13.40
2018-04-10T21:54:16.245Z,13.40
2018-04-10T21:56:42.508Z,13.30
2018-04-10T21:59:08.909Z,13.30
2018-04-10T22:01:35.941Z,13.20
2018-04-10T22:04:02.277Z,13.10
2018-04-10T22:06:28.567Z,13.10
2018-04-10T22:08:55.565Z,13.00
2018-04-10T22:11:21.840Z,13.00
2018-04-10T22:13:48.155Z,13.00
2018-04-10T22:16:14.467Z,12.90
2018-04-10T22:18:40.725Z,12.90
2018-04-10T22:21:07.066Z,12.70
2018-04-10T22:23:33.380Z,12.70
2018-04-10T22:25:59.686Z,12.60
2018-04-10T22:28:25.937Z,12.50
2018-04-10T22:30:52.200Z,12.50
2018-04-10T22:33:19.221Z,12.30
2018-04-10T22:35:45.544Z,12.30
2018-04-10T22:38:11.946Z,12.30
2018-04-10T22:40:38.260Z,12.30
2018-04-10T22:43:05.266Z,12.20
2018-04-10T22:45:31.687Z,12.20
2018-04-10T22:47:58.836Z,12.30
2018-04-10T22:50:25.812Z,12.50
2018-04-10T22:52:52.459Z,12.40
2018-04-10T22:55:20.414Z,12.40
2018-04-10T22:57:47.272Z,12.30
2018-04-10T23:00:30.985Z,12.30
2018-04-10T23:03:01.118Z,12.30
2018-04-10T23:05:27.502Z,12.30
2018-04-10T23:07:53.791Z,12.30
2018-04-10T23:10:22.435Z,12.20
2018-04-10T23:12:48.775Z,12.10
2018-04-10T23:18:01.181Z,12.20
2018-04-10T23:20:31.219Z,12.20
2018-04-10T23:22:57.603Z,12.20
2018-04-10T23:25:24.624Z,12.10
2018-04-10T23:27:50.941Z,12.10
2018-04-10T23:30:17.954Z,12.00
2018-04-10T23:32:44.278Z,11.90
2018-04-10T23:35:10.746Z,11.90
2018-04-10T23:37:37.031Z,11.80
2018-04-10T23:40:03.423Z,11.80
2018-04-10T23:42:29.678Z,11.80
2018-04-10T23:44:56.007Z,11.80
2018-04-10T23:47:22.370Z,11.90
2018-04-10T23:49:49.222Z,11.90
2018-04-10T23:52:16.569Z,12.00
2018-04-10T23:54:42.878Z,12.00
2018-04-10T23:57:09.858Z,12.00
2018-04-10T23:59:36.901Z,12.10
